Terminal Aerodrome Forecast
Issued by NWS Dallas/Fort Worth, TX

Current Version | Previous Version | Text Only | Print | Product List | Glossary On
Versions: 1 2 3 4 5 6 7 8 9 10 11 12 13 14 15 16 17 18 19 20 21 22 23 24 25 26 27 28 29 30 31 32 33 34 35
000
FTUS44 KFWD 281136
TAFACT
TAF
KACT 281136Z 2812/0112 02008KT P6SM SCT015 OVC035
     FM281400 03010KT P6SM SCT008 BKN025
      TEMPO 2814/2817 3SM -FZDZ BR OVC006
     FM281700 05008KT 5SM -DZ BR OVC007
     FM281900 04006KT P6SM -RA OVC007
     FM010000 02006KT 2SM BR OVC004=

USA.gov is the U.S. government's official web portal to all federal, state and local government web resources and services.